sensor_id;sensor_type;location;lat;lon;timestamp;pressure;altitude;pressure_sealevel;temperature;humidity
13241;BME280;6687;47.790;7.322;2023-06-04T05:24:53;98941.28;;;19.94;42.29
13241;BME280;6687;47.790;7.322;2023-06-04T05:27:20;98933.22;;;20.22;41.78
13241;BME280;6687;47.790;7.322;2023-06-04T05:29:47;98942.00;;;20.21;41.41
13241;BME280;6687;47.790;7.322;2023-06-04T05:32:14;98944.88;;;20.38;41.13
13241;BME280;6687;47.790;7.322;2023-06-04T05:34:41;98944.88;;;20.15;41.15
13241;BME280;6687;47.790;7.322;2023-06-04T05:37:09;98942.44;;;20.56;40.78
13241;BME280;6687;47.790;7.322;2023-06-04T05:39:35;98936.63;;;19.77;42.29
13241;BME280;6687;47.790;7.322;2023-06-04T05:42:04;98939.25;;;20.48;40.63
13241;BME280;6687;47.790;7.322;2023-06-04T05:44:31;98935.31;;;20.81;40.47
13241;BME280;6687;47.790;7.322;2023-06-04T05:46:58;98937.63;;;21.11;40.17
13241;BME280;6687;47.790;7.322;2023-06-04T05:49:25;98940.00;;;21.17;39.71
13241;BME280;6687;47.790;7.322;2023-06-04T05:51:52;98946.06;;;21.19;40.09
13241;BME280;6687;47.790;7.322;2023-06-04T05:54:18;98940.22;;;20.45;40.09
13241;BME280;6687;47.790;7.322;2023-06-04T05:56:45;98944.53;;;20.48;39.82
13241;BME280;6687;47.790;7.322;2023-06-04T05:59:13;98950.03;;;20.41;40.03
13241;BME280;6687;47.790;7.322;2023-06-04T06:01:40;98942.88;;;21.11;38.89
13241;BME280;6687;47.790;7.322;2023-06-04T06:04:07;98944.59;;;20.22;40.08
13241;BME280;6687;47.790;7.322;2023-06-04T06:06:34;98943.94;;;20.63;39.54
13241;BME280;6687;47.790;7.322;2023-06-04T06:09:01;98949.00;;;20.22;40.34
13241;BME280;6687;47.790;7.322;2023-06-04T06:11:28;98954.13;;;21.15;39.32
13241;BME280;6687;47.790;7.322;2023-06-04T06:13:55;98953.38;;;21.95;38.32
13241;BME280;6687;47.790;7.322;2023-06-04T06:16:23;98954.97;;;21.99;37.77
13241;BME280;6687;47.790;7.322;2023-06-04T06:18:50;98947.41;;;21.50;38.04
13241;BME280;6687;47.790;7.322;2023-06-04T06:21:16;98953.53;;;22.11;37.83
13241;BME280;6687;47.790;7.322;2023-06-04T06:23:43;98953.88;;;22.42;37.18
13241;BME280;6687;47.790;7.322;2023-06-04T06:26:10;98963.22;;;21.91;37.11
13241;BME280;6687;47.790;7.322;2023-06-04T06:28:37;98972.72;;;21.75;37.58
13241;BME280;6687;47.790;7.322;2023-06-04T06:31:04;98968.91;;;21.61;37.56
13241;BME280;6687;47.790;7.322;2023-06-04T06:33:32;98978.59;;;20.74;38.96
13241;BME280;6687;47.790;7.322;2023-06-04T06:35:59;98972.19;;;20.58;39.43
13241;BME280;6687;47.790;7.322;2023-06-04T06:38:26;98972.09;;;21.27;38.86
13241;BME280;6687;47.790;7.322;2023-06-04T06:40:53;98972.22;;;21.02;39.17
13241;BME280;6687;47.790;7.322;2023-06-04T06:43:19;98968.69;;;21.03;39.18
13241;BME280;6687;47.790;7.322;2023-06-04T06:45:46;98967.94;;;20.99;38.82
13241;BME280;6687;47.790;7.322;2023-06-04T06:48:13;98978.84;;;21.12;38.68
13241;BME280;6687;47.790;7.322;2023-06-04T06:50:41;98978.31;;;21.88;38.19
13241;BME280;6687;47.790;7.322;2023-06-04T06:53:08;98982.88;;;21.43;38.52
13241;BME280;6687;47.790;7.322;2023-06-04T06:55:35;98971.13;;;22.50;36.69
13241;BME280;6687;47.790;7.322;2023-06-04T06:58:02;98975.75;;;22.26;36.81
13241;BME280;6687;47.790;7.322;2023-06-04T07:00:28;98971.44;;;22.23;36.65
13241;BME280;6687;47.790;7.322;2023-06-04T07:02:55;98975.53;;;22.30;37.02
13241;BME280;6687;47.790;7.322;2023-06-04T07:05:22;98971.28;;;21.68;37.47
13241;BME280;6687;47.790;7.322;2023-06-04T07:07:50;98984.41;;;22.67;36.90
13241;BME280;6687;47.790;7.322;2023-06-04T07:10:17;98981.78;;;22.09;36.77
13241;BME280;6687;47.790;7.322;2023-06-04T07:12:44;98979.50;;;22.20;36.57
13241;BME280;6687;47.790;7.322;2023-06-04T07:15:11;98971.13;;;22.50;36.23
13241;BME280;6687;47.790;7.322;2023-06-04T07:17:38;98970.97;;;22.72;35.73
13241;BME280;6687;47.790;7.322;2023-06-04T07:20:06;98965.50;;;22.57;36.15
13241;BME280;6687;47.790;7.322;2023-06-04T07:22:33;98974.69;;;21.70;37.93
13241;BME280;6687;47.790;7.322;2023-06-04T07:25:01;98968.88;;;22.21;37.38
13241;BME280;6687;47.790;7.322;2023-06-04T07:27:28;98971.34;;;22.45;36.62
13241;BME280;6687;47.790;7.322;2023-06-04T07:29:55;98986.63;;;22.38;36.74
13241;BME280;6687;47.790;7.322;2023-06-04T07:32:22;98984.16;;;22.72;36.46
13241;BME280;6687;47.790;7.322;2023-06-04T07:34:48;98984.16;;;22.91;35.85
13241;BME280;6687;47.790;7.322;2023-06-04T07:37:15;98981.34;;;22.94;36.10
13241;BME280;6687;47.790;7.322;2023-06-04T07:39:42;98984.53;;;22.83;36.67
13241;BME280;6687;47.790;7.322;2023-06-04T07:42:10;98986.78;;;23.97;34.27
13241;BME280;6687;47.790;7.322;2023-06-04T07:44:37;98985.81;;;23.82;34.75
13241;BME280;6687;47.790;7.322;2023-06-04T07:47:04;98984.31;;;23.76;34.95
13241;BME280;6687;47.790;7.322;2023-06-04T07:49:31;98983.41;;;24.11;34.20
13241;BME280;6687;47.790;7.322;2023-06-04T07:51:58;98986.28;;;23.90;34.22
13241;BME280;6687;47.790;7.322;2023-06-04T07:54:24;98974.66;;;24.26;34.31
13241;BME280;6687;47.790;7.322;2023-06-04T07:56:51;98975.16;;;24.33;33.88
13241;BME280;6687;47.790;7.322;2023-06-04T07:59:22;98985.03;;;24.94;33.47
13241;BME280;6687;47.790;7.322;2023-06-04T08:01:49;98988.38;;;24.98;33.52
13241;BME280;6687;47.790;7.322;2023-06-04T08:04:16;98982.56;;;24.44;34.40
13241;BME280;6687;47.790;7.322;2023-06-04T08:06:43;98985.41;;;24.72;33.36
13241;BME280;6687;47.790;7.322;2023-06-04T08:09:10;98990.78;;;24.87;33.72
13241;BME280;6687;47.790;7.322;2023-06-04T08:11:39;98992.81;;;25.13;33.40
13241;BME280;6687;47.790;7.322;2023-06-04T08:14:05;98986.72;;;25.57;32.57
13241;BME280;6687;47.790;7.322;2023-06-04T08:16:33;98983.75;;;25.17;32.86
13241;BME280;6687;47.790;7.322;2023-06-04T08:19:00;98982.31;;;25.42;33.45
13241;BME280;6687;47.790;7.322;2023-06-04T08:21:27;98991.75;;;26.21;32.50
13241;BME280;6687;47.790;7.322;2023-06-04T08:23:54;98985.28;;;26.68;32.21
13241;BME280;6687;47.790;7.322;2023-06-04T08:26:21;98977.09;;;26.57;31.76
13241;BME280;6687;47.790;7.322;2023-06-04T08:28:48;98984.41;;;26.68;32.21
13241;BME280;6687;47.790;7.322;2023-06-04T08:31:15;98972.47;;;26.32;32.53
13241;BME280;6687;47.790;7.322;2023-06-04T08:33:45;98974.69;;;26.11;32.68
13241;BME280;6687;47.790;7.322;2023-06-04T08:36:12;98964.63;;;26.30;31.83
13241;BME280;6687;47.790;7.322;2023-06-04T08:38:39;98971.75;;;26.15;32.73
13241;BME280;6687;47.790;7.322;2023-06-04T08:41:12;98976.00;;;26.18;32.23
13241;BME280;6687;47.790;7.322;2023-06-04T08:43:39;98972.72;;;26.56;32.24
13241;BME280;6687;47.790;7.322;2023-06-04T08:46:09;98982.28;;;26.03;32.42
13241;BME280;6687;47.790;7.322;2023-06-04T08:48:37;98989.38;;;26.02;32.65
13241;BME280;6687;47.790;7.322;2023-06-04T08:51:06;98979.72;;;26.86;31.46
13241;BME280;6687;47.790;7.322;2023-06-04T08:53:34;98986.00;;;27.39;30.92
13241;BME280;6687;47.790;7.322;2023-06-04T08:56:02;98990.56;;;27.37;31.34
13241;BME280;6687;47.790;7.322;2023-06-04T08:58:31;98988.94;;;27.62;31.15
13241;BME280;6687;47.790;7.322;2023-06-04T09:00:58;98989.88;;;27.61;30.45
13241;BME280;6687;47.790;7.322;2023-06-04T09:03:26;98983.72;;;27.06;31.33
13241;BME280;6687;47.790;7.322;2023-06-04T09:05:52;98987.00;;;26.41;31.67
13241;BME280;6687;47.790;7.322;2023-06-04T09:08:23;98998.22;;;26.31;32.21
13241;BME280;6687;47.790;7.322;2023-06-04T09:10:53;98989.56;;;27.25;31.55
13241;BME280;6687;47.790;7.322;2023-06-04T09:13:22;98986.69;;;27.01;31.15
13241;BME280;6687;47.790;7.322;2023-06-04T09:15:58;98987.75;;;26.14;32.33
13241;BME280;6687;47.790;7.322;2023-06-04T09:18:25;98988.72;;;27.25;30.47
13241;BME280;6687;47.790;7.322;2023-06-04T09:21:00;98987.53;;;27.02;31.12
13241;BME280;6687;47.790;7.322;2023-06-04T09:23:28;98991.72;;;26.50;31.27
13241;BME280;6687;47.790;7.322;2023-06-04T09:25:55;98992.19;;;27.52;30.81
13241;BME280;6687;47.790;7.322;2023-06-04T09:28:22;98990.50;;;26.41;31.99
13241;BME280;6687;47.790;7.322;2023-06-04T09:30:52;98981.50;;;27.27;31.38
13241;BME280;6687;47.790;7.322;2023-06-04T09:33:19;98986.28;;;28.26;30.27
13241;BME280;6687;47.790;7.322;2023-06-04T09:35:53;98988.19;;;28.36;30.06
13241;BME280;6687;47.790;7.322;2023-06-04T09:38:20;98984.22;;;27.52;31.41
13241;BME280;6687;47.790;7.322;2023-06-04T09:40:49;98973.72;;;28.02;29.92
13241;BME280;6687;47.790;7.322;2023-06-04T09:43:21;98979.78;;;27.78;30.36
13241;BME280;6687;47.790;7.322;2023-06-04T09:45:48;98974.84;;;27.19;31.23
13241;BME280;6687;47.790;7.322;2023-06-04T09:48:19;98974.34;;;27.80;29.94
13241;BME280;6687;47.790;7.322;2023-06-04T09:50:47;98978.19;;;27.76;30.65
13241;BME280;6687;47.790;7.322;2023-06-04T09:53:14;98970.63;;;27.70;30.92
13241;BME280;6687;47.790;7.322;2023-06-04T09:55:42;98972.88;;;28.02;31.60
13241;BME280;6687;47.790;7.322;2023-06-04T09:58:11;98976.91;;;28.20;30.94
13241;BME280;6687;47.790;7.322;2023-06-04T10:00:39;98976.00;;;27.30;32.40
13241;BME280;6687;47.790;7.322;2023-06-04T10:03:10;98978.19;;;27.76;31.78
13241;BME280;6687;47.790;7.322;2023-06-04T10:05:41;98972.59;;;28.56;31.13
13241;BME280;6687;47.790;7.322;2023-06-04T10:08:09;98974.38;;;28.06;32.25
13241;BME280;6687;47.790;7.322;2023-06-04T10:10:40;98981.53;;;29.40;30.24
13241;BME280;6687;47.790;7.322;2023-06-04T10:13:18;98976.22;;;27.52;32.36
13241;BME280;6687;47.790;7.322;2023-06-04T10:15:45;98981.38;;;27.68;32.48
13241;BME280;6687;47.790;7.322;2023-06-04T10:18:13;98966.34;;;27.80;32.15
13241;BME280;6687;47.790;7.322;2023-06-04T10:20:40;98969.00;;;28.57;31.78
13241;BME280;6687;47.790;7.322;2023-06-04T10:23:07;98964.47;;;28.08;32.18
13241;BME280;6687;47.790;7.322;2023-06-04T10:25:35;98960.88;;;27.43;33.15
13241;BME280;6687;47.790;7.322;2023-06-04T10:28:02;98967.00;;;28.22;32.02
13241;BME280;6687;47.790;7.322;2023-06-04T10:30:31;98969.94;;;28.93;31.84
13241;BME280;6687;47.790;7.322;2023-06-04T10:32:58;98971.44;;;29.32;31.16
13241;BME280;6687;47.790;7.322;2023-06-04T10:35:32;98968.81;;;28.09;33.23
13241;BME280;6687;47.790;7.322;2023-06-04T10:38:09;98955.59;;;28.94;31.80
13241;BME280;6687;47.790;7.322;2023-06-04T10:40:36;98967.09;;;29.07;32.07
13241;BME280;6687;47.790;7.322;2023-06-04T10:43:07;98960.53;;;29.71;30.48
13241;BME280;6687;47.790;7.322;2023-06-04T10:45:35;98962.69;;;29.19;31.66
13241;BME280;6687;47.790;7.322;2023-06-04T10:48:03;98961.53;;;30.04;31.06
13241;BME280;6687;47.790;7.322;2023-06-04T10:50:31;98964.09;;;30.05;31.38
13241;BME280;6687;47.790;7.322;2023-06-04T10:52:58;98953.06;;;30.99;30.20
13241;BME280;6687;47.790;7.322;2023-06-04T10:55:28;98957.88;;;30.72;29.83
13241;BME280;6687;47.790;7.322;2023-06-04T10:57:56;98961.78;;;29.89;31.70
13241;BME280;6687;47.790;7.322;2023-06-04T11:00:35;98963.56;;;30.79;30.08
13241;BME280;6687;47.790;7.322;2023-06-04T11:03:04;98962.88;;;29.98;31.10
13241;BME280;6687;47.790;7.322;2023-06-04T11:05:35;98958.56;;;30.86;29.47
13241;BME280;6687;47.790;7.322;2023-06-04T11:08:03;98948.47;;;30.35;30.49
13241;BME280;6687;47.790;7.322;2023-06-04T11:10:34;98955.94;;;30.63;29.78
13241;BME280;6687;47.790;7.322;2023-06-04T11:13:02;98953.63;;;29.80;30.71
13241;BME280;6687;47.790;7.322;2023-06-04T11:15:39;98956.00;;;30.84;29.76
13241;BME280;6687;47.790;7.322;2023-06-04T11:18:06;98954.25;;;30.06;30.18
13241;BME280;6687;47.790;7.322;2023-06-04T11:20:33;98954.94;;;29.63;30.91
13241;BME280;6687;47.790;7.322;2023-06-04T11:23:00;98946.50;;;30.37;30.82
13241;BME280;6687;47.790;7.322;2023-06-04T11:25:29;98952.72;;;31.24;29.00
13241;BME280;6687;47.790;7.322;2023-06-04T11:27:56;98948.41;;;32.17;28.64
13241;BME280;6687;47.790;7.322;2023-06-04T11:30:23;98938.72;;;30.22;30.27
13241;BME280;6687;47.790;7.322;2023-06-04T11:32:59;98935.47;;;31.17;29.43
13241;BME280;6687;47.790;7.322;2023-06-04T11:35:27;98941.16;;;31.56;29.36
13241;BME280;6687;47.790;7.322;2023-06-04T11:37:54;98946.72;;;30.56;30.67
13241;BME280;6687;47.790;7.322;2023-06-04T11:40:21;98944.97;;;31.42;29.40
13241;BME280;6687;47.790;7.322;2023-06-04T11:42:48;98937.81;;;31.10;29.48
13241;BME280;6687;47.790;7.322;2023-06-04T11:45:16;98936.97;;;30.66;29.79
13241;BME280;6687;47.790;7.322;2023-06-04T11:47:45;98936.38;;;30.51;30.21
13241;BME280;6687;47.790;7.322;2023-06-04T11:50:13;98932.63;;;31.72;28.89
13241;BME280;6687;47.790;7.322;2023-06-04T11:52:40;98935.34;;;30.86;30.31
13241;BME280;6687;47.790;7.322;2023-06-04T11:55:08;98933.75;;;32.31;28.39
13241;BME280;6687;47.790;7.322;2023-06-04T11:57:36;98940.25;;;32.69;28.04
13241;BME280;6687;47.790;7.322;2023-06-04T12:00:03;98932.91;;;32.00;28.46
13241;BME280;6687;47.790;7.322;2023-06-04T12:02:33;98932.09;;;31.36;28.65
13241;BME280;6687;47.790;7.322;2023-06-04T12:05:10;98920.91;;;32.35;27.84
13241;BME280;6687;47.790;7.322;2023-06-04T12:07:38;98919.31;;;32.73;27.73
13241;BME280;6687;47.790;7.322;2023-06-04T12:10:06;98921.31;;;32.90;27.41
13241;BME280;6687;47.790;7.322;2023-06-04T12:12:34;98921.19;;;33.40;26.57
13241;BME280;6687;47.790;7.322;2023-06-04T12:15:01;98915.84;;;33.87;26.23
13241;BME280;6687;47.790;7.322;2023-06-04T12:17:29;98913.19;;;32.41;27.46
13241;BME280;6687;47.790;7.322;2023-06-04T12:19:55;98919.63;;;33.47;26.61
13241;BME280;6687;47.790;7.322;2023-06-04T12:22:24;98915.16;;;33.19;26.82
13241;BME280;6687;47.790;7.322;2023-06-04T12:24:54;98911.59;;;33.28;26.42
13241;BME280;6687;47.790;7.322;2023-06-04T12:27:21;98916.78;;;32.81;26.88
13241;BME280;6687;47.790;7.322;2023-06-04T12:29:56;98918.22;;;33.43;26.28
13241;BME280;6687;47.790;7.322;2023-06-04T12:32:23;98918.44;;;33.79;26.42
13241;BME280;6687;47.790;7.322;2023-06-04T12:34:50;98911.09;;;34.64;24.71
13241;BME280;6687;47.790;7.322;2023-06-04T12:37:16;98907.81;;;34.71;25.33
13241;BME280;6687;47.790;7.322;2023-06-04T12:39:43;98913.59;;;33.93;25.21
13241;BME280;6687;47.790;7.322;2023-06-04T12:42:11;98913.34;;;34.41;24.82
13241;BME280;6687;47.790;7.322;2023-06-04T12:44:39;98910.41;;;34.62;25.20
13241;BME280;6687;47.790;7.322;2023-06-04T12:47:06;98907.75;;;34.35;24.43
13241;BME280;6687;47.790;7.322;2023-06-04T12:49:33;98910.09;;;34.10;25.53
13241;BME280;6687;47.790;7.322;2023-06-04T12:52:00;98903.41;;;34.24;25.65
13241;BME280;6687;47.790;7.322;2023-06-04T12:54:26;98906.78;;;33.32;25.66
13241;BME280;6687;47.790;7.322;2023-06-04T12:56:53;98896.38;;;34.86;23.88
13241;BME280;6687;47.790;7.322;2023-06-04T12:59:23;98887.06;;;34.81;24.19
13241;BME280;6687;47.790;7.322;2023-06-04T13:01:50;98889.84;;;34.61;24.35
13241;BME280;6687;47.790;7.322;2023-06-04T13:04:17;98890.09;;;34.50;24.34
13241;BME280;6687;47.790;7.322;2023-06-04T13:06:44;98885.19;;;34.08;24.00
13241;BME280;6687;47.790;7.322;2023-06-04T13:09:12;98876.53;;;35.50;22.88
13241;BME280;6687;47.790;7.322;2023-06-04T13:11:41;98875.63;;;33.96;24.09
13241;BME280;6687;47.790;7.322;2023-06-04T13:14:08;98881.97;;;34.14;24.60
13241;BME280;6687;47.790;7.322;2023-06-04T13:16:38;98880.84;;;34.80;23.05
13241;BME280;6687;47.790;7.322;2023-06-04T13:19:05;98875.53;;;34.43;23.63
13241;BME280;6687;47.790;7.322;2023-06-04T13:21:31;98875.13;;;34.83;22.87
13241;BME280;6687;47.790;7.322;2023-06-04T13:23:58;98880.63;;;32.65;25.49
13241;BME280;6687;47.790;7.322;2023-06-04T13:26:25;98883.63;;;32.22;25.75
13241;BME280;6687;47.790;7.322;2023-06-04T13:28:52;98886.31;;;33.21;24.18
13241;BME280;6687;47.790;7.322;2023-06-04T13:31:18;98886.84;;;33.15;24.59
13241;BME280;6687;47.790;7.322;2023-06-04T13:33:46;98886.25;;;33.40;24.63
13241;BME280;6687;47.790;7.322;2023-06-04T13:36:13;98874.41;;;32.94;24.62
13241;BME280;6687;47.790;7.322;2023-06-04T13:38:40;98869.50;;;33.76;24.03
13241;BME280;6687;47.790;7.322;2023-06-04T13:41:08;98866.28;;;34.91;23.02
13241;BME280;6687;47.790;7.322;2023-06-04T13:43:35;98864.75;;;35.59;23.14
13241;BME280;6687;47.790;7.322;2023-06-04T13:46:01;98860.56;;;34.58;23.54
13241;BME280;6687;47.790;7.322;2023-06-04T13:48:28;98859.69;;;35.12;23.48
13241;BME280;6687;47.790;7.322;2023-06-04T13:50:56;98861.53;;;34.12;24.13
13241;BME280;6687;47.790;7.322;2023-06-04T13:53:23;98859.03;;;34.74;23.09
13241;BME280;6687;47.790;7.322;2023-06-04T13:55:50;98855.91;;;34.78;23.16
13241;BME280;6687;47.790;7.322;2023-06-04T13:58:22;98854.41;;;33.65;23.52
13241;BME280;6687;47.790;7.322;2023-06-04T14:00:49;98862.16;;;35.23;21.98
13241;BME280;6687;47.790;7.322;2023-06-04T14:03:16;98846.34;;;35.02;21.42
13241;BME280;6687;47.790;7.322;2023-06-04T14:05:43;98850.03;;;34.47;22.46
13241;BME280;6687;47.790;7.322;2023-06-04T14:08:11;98845.59;;;35.36;22.03
13241;BME280;6687;47.790;7.322;2023-06-04T14:10:38;98855.19;;;34.58;22.18
13241;BME280;6687;47.790;7.322;2023-06-04T14:13:06;98850.81;;;35.90;21.60
13241;BME280;6687;47.790;7.322;2023-06-04T14:15:33;98835.28;;;34.87;22.53
13241;BME280;6687;47.790;7.322;2023-06-04T14:18:00;98837.47;;;36.31;21.35
13241;BME280;6687;47.790;7.322;2023-06-04T14:20:27;98834.41;;;35.83;22.02
13241;BME280;6687;47.790;7.322;2023-06-04T14:22:54;98830.41;;;35.61;21.67
13241;BME280;6687;47.790;7.322;2023-06-04T14:25:22;98838.66;;;35.33;22.25
13241;BME280;6687;47.790;7.322;2023-06-04T14:27:48;98822.91;;;34.13;22.72
13241;BME280;6687;47.790;7.322;2023-06-04T14:30:16;98830.81;;;35.66;21.44
13241;BME280;6687;47.790;7.322;2023-06-04T14:32:43;98817.53;;;35.47;21.21
13241;BME280;6687;47.790;7.322;2023-06-04T14:35:10;98816.06;;;35.26;22.18
13241;BME280;6687;47.790;7.322;2023-06-04T14:37:37;98806.09;;;36.38;21.64
13241;BME280;6687;47.790;7.322;2023-06-04T14:40:05;98810.97;;;36.26;21.45
13241;BME280;6687;47.790;7.322;2023-06-04T14:42:33;98813.34;;;35.87;21.08
13241;BME280;6687;47.790;7.322;2023-06-04T14:45:00;98800.88;;;36.44;20.24
13241;BME280;6687;47.790;7.322;2023-06-04T14:47:26;98804.09;;;36.56;20.91
13241;BME280;6687;47.790;7.322;2023-06-04T14:49:53;98791.78;;;35.18;21.41
13241;BME280;6687;47.790;7.322;2023-06-04T14:52:20;98793.28;;;35.81;20.65
13241;BME280;6687;47.790;7.322;2023-06-04T14:54:46;98788.13;;;34.65;21.97
13241;BME280;6687;47.790;7.322;2023-06-04T14:57:13;98792.69;;;35.09;22.39
13241;BME280;6687;47.790;7.322;2023-06-04T14:59:43;98789.09;;;35.52;21.62
13241;BME280;6687;47.790;7.322;2023-06-04T15:02:09;98782.13;;;36.35;21.07
13241;BME280;6687;47.790;7.322;2023-06-04T15:04:36;98776.38;;;34.84;22.18
13241;BME280;6687;47.790;7.322;2023-06-04T15:07:07;98778.06;;;35.37;21.63
13241;BME280;6687;47.790;7.322;2023-06-04T15:09:34;98774.56;;;36.55;21.55
13241;BME280;6687;47.790;7.322;2023-06-04T15:12:01;98773.72;;;36.46;20.50
13241;BME280;6687;47.790;7.322;2023-06-04T15:14:28;98779.13;;;35.87;21.30
13241;BME280;6687;47.790;7.322;2023-06-04T15:16:56;98773.19;;;35.75;21.14
13241;BME280;6687;47.790;7.322;2023-06-04T15:19:23;98776.66;;;34.63;22.33
13241;BME280;6687;47.790;7.322;2023-06-04T15:21:49;98782.13;;;36.18;21.29
13241;BME280;6687;47.790;7.322;2023-06-04T15:24:16;98785.38;;;35.53;21.61
13241;BME280;6687;47.790;7.322;2023-06-04T15:26:43;98787.22;;;36.46;20.81
13241;BME280;6687;47.790;7.322;2023-06-04T15:29:10;98773.03;;;34.90;22.36
13241;BME280;6687;47.790;7.322;2023-06-04T15:31:36;98780.75;;;34.49;22.71
13241;BME280;6687;47.790;7.322;2023-06-04T15:34:04;98777.72;;;35.32;21.66
13241;BME280;6687;47.790;7.322;2023-06-04T15:36:31;98783.56;;;36.04;21.22
13241;BME280;6687;47.790;7.322;2023-06-04T15:38:59;98786.16;;;36.22;21.98
13241;BME280;6687;47.790;7.322;2023-06-04T15:41:26;98786.16;;;36.22;21.28
13241;BME280;6687;47.790;7.322;2023-06-04T15:43:53;98778.28;;;35.44;22.14
13241;BME280;6687;47.790;7.322;2023-06-04T15:46:22;98789.16;;;36.11;21.10
13241;BME280;6687;47.790;7.322;2023-06-04T15:48:49;98788.56;;;36.42;21.29
13241;BME280;6687;47.790;7.322;2023-06-04T15:51:18;98786.09;;;34.13;23.30
13241;BME280;6687;47.790;7.322;2023-06-04T15:53:44;98788.53;;;34.06;23.13
13241;BME280;6687;47.790;7.322;2023-06-04T15:56:11;98781.94;;;35.69;21.75
13241;BME280;6687;47.790;7.322;2023-06-04T15:58:38;98784.31;;;35.72;21.35
13241;BME280;6687;47.790;7.322;2023-06-04T16:01:05;98787.25;;;35.61;21.53
13241;BME280;6687;47.790;7.322;2023-06-04T16:03:32;98788.53;;;35.75;21.74
13241;BME280;6687;47.790;7.322;2023-06-04T16:05:59;98784.84;;;34.97;22.00
13241;BME280;6687;47.790;7.322;2023-06-04T16:08:27;98784.56;;;35.27;21.89
13241;BME280;6687;47.790;7.322;2023-06-04T16:10:54;98782.63;;;33.75;23.62
13241;BME280;6687;47.790;7.322;2023-06-04T16:13:21;98783.19;;;34.96;23.06
13241;BME280;6687;47.790;7.322;2023-06-04T16:15:48;98772.56;;;34.05;22.71
13241;BME280;6687;47.790;7.322;2023-06-04T16:18:14;98777.91;;;33.02;24.17
13241;BME280;6687;47.790;7.322;2023-06-04T16:20:41;98777.50;;;34.63;22.92
13241;BME280;6687;47.790;7.322;2023-06-04T16:23:08;98774.22;;;34.34;22.67
13241;BME280;6687;47.790;7.322;2023-06-04T16:25:36;98769.75;;;35.04;22.36
13241;BME280;6687;47.790;7.322;2023-06-04T16:28:03;98762.72;;;34.85;22.55
13241;BME280;6687;47.790;7.322;2023-06-04T16:30:31;98774.09;;;35.23;22.20
13241;BME280;6687;47.790;7.322;2023-06-04T16:32:57;98764.22;;;34.44;22.36
13241;BME280;6687;47.790;7.322;2023-06-04T16:35:24;98774.97;;;34.26;22.55
13241;BME280;6687;47.790;7.322;2023-06-04T16:37:52;98771.66;;;34.86;21.97
13241;BME280;6687;47.790;7.322;2023-06-04T16:40:19;98774.94;;;34.62;21.95
13241;BME280;6687;47.790;7.322;2023-06-04T16:42:48;98769.22;;;34.75;22.21
13241;BME280;6687;47.790;7.322;2023-06-04T16:45:16;98774.59;;;34.57;22.52
13241;BME280;6687;47.790;7.322;2023-06-04T16:47:43;98769.63;;;33.98;22.62
13241;BME280;6687;47.790;7.322;2023-06-04T16:50:10;98768.78;;;33.70;22.41
13241;BME280;6687;47.790;7.322;2023-06-04T16:52:37;98775.03;;;33.33;23.23
13241;BME280;6687;47.790;7.322;2023-06-04T16:55:05;98779.09;;;33.37;23.18
13241;BME280;6687;47.790;7.322;2023-06-04T16:57:33;98773.94;;;33.54;23.05
13241;BME280;6687;47.790;7.322;2023-06-04T17:00:02;98785.13;;;33.12;23.19
13241;BME280;6687;47.790;7.322;2023-06-04T17:02:29;98783.84;;;33.63;23.19
13241;BME280;6687;47.790;7.322;2023-06-04T17:04:56;98788.66;;;33.49;23.30
13241;BME280;6687;47.790;7.322;2023-06-04T17:07:22;98798.94;;;33.64;23.39
13241;BME280;6687;47.790;7.322;2023-06-04T17:09:49;98806.59;;;33.21;23.49
13241;BME280;6687;47.790;7.322;2023-06-04T17:12:16;98799.66;;;33.94;22.59
13241;BME280;6687;47.790;7.322;2023-06-04T17:14:43;98795.72;;;34.16;22.60
13241;BME280;6687;47.790;7.322;2023-06-04T17:17:11;98797.06;;;33.74;22.83
13241;BME280;6687;47.790;7.322;2023-06-04T17:19:38;98795.84;;;33.68;22.43
13241;BME280;6687;47.790;7.322;2023-06-04T17:22:06;98793.94;;;33.79;22.67
13241;BME280;6687;47.790;7.322;2023-06-04T17:24:33;98797.78;;;33.29;23.15
13241;BME280;6687;47.790;7.322;2023-06-04T17:26:59;98788.09;;;33.46;23.02
13241;BME280;6687;47.790;7.322;2023-06-04T17:29:26;98797.25;;;32.96;23.12
13241;BME280;6687;47.790;7.322;2023-06-04T17:31:53;98800.97;;;32.95;23.11
13241;BME280;6687;47.790;7.322;2023-06-04T17:34:21;98795.97;;;33.20;23.23
13241;BME280;6687;47.790;7.322;2023-06-04T17:36:48;98798.63;;;33.29;23.29
13241;BME280;6687;47.790;7.322;2023-06-04T17:39:14;98799.53;;;32.33;23.91
13241;BME280;6687;47.790;7.322;2023-06-04T17:41:41;98796.44;;;32.57;24.09
13241;BME280;6687;47.790;7.322;2023-06-04T17:44:08;98807.41;;;32.24;24.16
13241;BME280;6687;47.790;7.322;2023-06-04T17:46:35;98804.03;;;32.22;24.14
13241;BME280;6687;47.790;7.322;2023-06-04T17:49:02;98804.81;;;31.94;24.26
13241;BME280;6687;47.790;7.322;2023-06-04T17:51:36;98808.59;;;31.91;24.22
13241;BME280;6687;47.790;7.322;2023-06-04T17:54:03;98803.91;;;31.83;24.66
13241;BME280;6687;47.790;7.322;2023-06-04T17:56:29;98809.34;;;32.03;24.48
13241;BME280;6687;47.790;7.322;2023-06-04T17:58:56;98815.38;;;31.85;24.86
13241;BME280;6687;47.790;7.322;2023-06-04T18:01:23;98812.75;;;32.05;24.75
13241;BME280;6687;47.790;7.322;2023-06-04T18:03:49;98809.00;;;31.86;24.73
13241;BME280;6687;47.790;7.322;2023-06-04T18:06:16;98811.22;;;31.81;24.80
13241;BME280;6687;47.790;7.322;2023-06-04T18:08:44;98814.97;;;32.00;24.58
13241;BME280;6687;47.790;7.322;2023-06-04T18:11:11;98819.63;;;31.98;24.90
13241;BME280;6687;47.790;7.322;2023-06-04T18:13:38;98816.16;;;31.76;25.13
13241;BME280;6687;47.790;7.322;2023-06-04T18:16:05;98820.69;;;31.45;25.28
13241;BME280;6687;47.790;7.322;2023-06-04T18:18:32;98812.91;;;31.73;25.04
13241;BME280;6687;47.790;7.322;2023-06-04T18:20:59;98810.91;;;31.65;24.93
13241;BME280;6687;47.790;7.322;2023-06-04T18:23:25;98816.16;;;31.76;24.77
13241;BME280;6687;47.790;7.322;2023-06-04T18:25:53;98823.81;;;31.90;24.86
13241;BME280;6687;47.790;7.322;2023-06-04T18:28:20;98824.81;;;31.89;24.93
13241;BME280;6687;47.790;7.322;2023-06-04T18:30:47;98820.56;;;31.87;24.84
13241;BME280;6687;47.790;7.322;2023-06-04T18:33:13;98825.91;;;31.87;24.89
13241;BME280;6687;47.790;7.322;2023-06-04T18:35:40;98819.09;;;31.73;24.93